sensor_id;sensor_type;location;lat;lon;timestamp;P1;durP1;ratioP1;P2;durP2;ratioP2
4694;SDS011;2361;49.540;8.390;2022-09-12T00:02:15;7.20;;;5.63;;
4694;SDS011;2361;49.540;8.390;2022-09-12T00:04:42;8.30;;;5.90;;
4694;SDS011;2361;49.540;8.390;2022-09-12T00:07:09;9.73;;;6.20;;
4694;SDS011;2361;49.540;8.390;2022-09-12T00:09:36;8.80;;;6.03;;
4694;SDS011;2361;49.540;8.390;2022-09-12T00:12:03;7.37;;;5.40;;
4694;SDS011;2361;49.540;8.390;2022-09-12T00:14:30;6.67;;;5.17;;
4694;SDS011;2361;49.540;8.390;2022-09-12T00:16:57;7.30;;;5.37;;
4694;SDS011;2361;49.540;8.390;2022-09-12T00:19:25;11.00;;;6.30;;
4694;SDS011;2361;49.540;8.390;2022-09-12T00:21:53;6.77;;;5.27;;
4694;SDS011;2361;49.540;8.390;2022-09-12T00:24:20;7.60;;;5.50;;
4694;SDS011;2361;49.540;8.390;2022-09-12T00:26:48;8.37;;;5.93;;
4694;SDS011;2361;49.540;8.390;2022-09-12T00:29:19;7.80;;;5.67;;
4694;SDS011;2361;49.540;8.390;2022-09-12T00:31:47;6.23;;;5.20;;
4694;SDS011;2361;49.540;8.390;2022-09-12T00:34:14;8.53;;;6.10;;
4694;SDS011;2361;49.540;8.390;2022-09-12T00:36:41;10.20;;;6.60;;
4694;SDS011;2361;49.540;8.390;2022-09-12T00:39:09;10.43;;;6.30;;
4694;SDS011;2361;49.540;8.390;2022-09-12T00:41:42;8.83;;;5.87;;
4694;SDS011;2361;49.540;8.390;2022-09-12T00:52:22;8.00;;;5.90;;
4694;SDS011;2361;49.540;8.390;2022-09-12T00:55:05;7.07;;;5.60;;
4694;SDS011;2361;49.540;8.390;2022-09-12T00:57:42;8.37;;;5.00;;
4694;SDS011;2361;49.540;8.390;2022-09-12T01:00:26;8.43;;;5.50;;
4694;SDS011;2361;49.540;8.390;2022-09-12T01:02:55;7.70;;;5.77;;
4694;SDS011;2361;49.540;8.390;2022-09-12T01:05:29;9.83;;;5.57;;
4694;SDS011;2361;49.540;8.390;2022-09-12T01:08:00;6.50;;;4.20;;
4694;SDS011;2361;49.540;8.390;2022-09-12T01:10:30;7.20;;;5.77;;
4694;SDS011;2361;49.540;8.390;2022-09-12T01:13:00;6.40;;;4.90;;
4694;SDS011;2361;49.540;8.390;2022-09-12T01:15:30;6.60;;;4.93;;
4694;SDS011;2361;49.540;8.390;2022-09-12T01:18:20;6.10;;;4.67;;
4694;SDS011;2361;49.540;8.390;2022-09-12T01:21:17;6.90;;;5.30;;
4694;SDS011;2361;49.540;8.390;2022-09-12T01:27:12;7.37;;;4.90;;
4694;SDS011;2361;49.540;8.390;2022-09-12T01:39:20;7.47;;;4.53;;
4694;SDS011;2361;49.540;8.390;2022-09-12T01:41:54;5.10;;;4.60;;
4694;SDS011;2361;49.540;8.390;2022-09-12T01:50:31;7.50;;;4.70;;
4694;SDS011;2361;49.540;8.390;2022-09-12T01:53:12;8.40;;;5.33;;
4694;SDS011;2361;49.540;8.390;2022-09-12T01:56:04;7.27;;;4.77;;
4694;SDS011;2361;49.540;8.390;2022-09-12T01:58:43;7.33;;;5.80;;
4694;SDS011;2361;49.540;8.390;2022-09-12T02:01:19;7.93;;;4.93;;
4694;SDS011;2361;49.540;8.390;2022-09-12T02:03:59;6.80;;;5.30;;
4694;SDS011;2361;49.540;8.390;2022-09-12T02:06:55;5.53;;;4.90;;
4694;SDS011;2361;49.540;8.390;2022-09-12T02:09:29;6.07;;;5.30;;
4694;SDS011;2361;49.540;8.390;2022-09-12T02:12:12;8.67;;;6.10;;
4694;SDS011;2361;49.540;8.390;2022-09-12T02:14:45;7.63;;;5.50;;
4694;SDS011;2361;49.540;8.390;2022-09-12T02:17:19;6.73;;;5.00;;
4694;SDS011;2361;49.540;8.390;2022-09-12T02:19:51;5.17;;;4.67;;
4694;SDS011;2361;49.540;8.390;2022-09-12T02:22:29;7.00;;;4.87;;
4694;SDS011;2361;49.540;8.390;2022-09-12T02:24:59;10.20;;;6.03;;
4694;SDS011;2361;49.540;8.390;2022-09-12T02:27:39;10.03;;;5.97;;
4694;SDS011;2361;49.540;8.390;2022-09-12T02:30:10;6.93;;;5.57;;
4694;SDS011;2361;49.540;8.390;2022-09-12T02:32:48;10.87;;;6.57;;
4694;SDS011;2361;49.540;8.390;2022-09-12T02:35:34;7.50;;;5.43;;
4694;SDS011;2361;49.540;8.390;2022-09-12T02:38:13;8.03;;;5.90;;
4694;SDS011;2361;49.540;8.390;2022-09-12T02:41:03;8.83;;;4.90;;
4694;SDS011;2361;49.540;8.390;2022-09-12T02:43:30;10.90;;;5.83;;
4694;SDS011;2361;49.540;8.390;2022-09-12T02:45:57;8.73;;;5.67;;
4694;SDS011;2361;49.540;8.390;2022-09-12T02:48:26;8.73;;;5.70;;
4694;SDS011;2361;49.540;8.390;2022-09-12T02:50:57;7.30;;;5.17;;
4694;SDS011;2361;49.540;8.390;2022-09-12T02:53:24;7.73;;;5.13;;
4694;SDS011;2361;49.540;8.390;2022-09-12T02:55:51;5.47;;;4.50;;
4694;SDS011;2361;49.540;8.390;2022-09-12T02:58:20;5.20;;;4.27;;
4694;SDS011;2361;49.540;8.390;2022-09-12T03:01:13;7.50;;;5.00;;
4694;SDS011;2361;49.540;8.390;2022-09-12T03:23:04;6.80;;;5.00;;
4694;SDS011;2361;49.540;8.390;2022-09-12T03:25:47;7.60;;;4.63;;
4694;SDS011;2361;49.540;8.390;2022-09-12T03:28:26;7.63;;;5.13;;
4694;SDS011;2361;49.540;8.390;2022-09-12T03:30:54;6.00;;;4.80;;
4694;SDS011;2361;49.540;8.390;2022-09-12T03:33:23;4.57;;;3.63;;
4694;SDS011;2361;49.540;8.390;2022-09-12T03:35:51;4.87;;;4.10;;
4694;SDS011;2361;49.540;8.390;2022-09-12T03:38:19;9.50;;;5.43;;
4694;SDS011;2361;49.540;8.390;2022-09-12T03:40:46;6.20;;;4.50;;
4694;SDS011;2361;49.540;8.390;2022-09-12T03:43:19;9.90;;;5.20;;
4694;SDS011;2361;49.540;8.390;2022-09-12T03:45:49;10.03;;;4.57;;
4694;SDS011;2361;49.540;8.390;2022-09-12T03:48:19;6.40;;;4.27;;
4694;SDS011;2361;49.540;8.390;2022-09-12T03:50:46;7.73;;;4.40;;
4694;SDS011;2361;49.540;8.390;2022-09-12T03:53:13;6.50;;;4.80;;
4694;SDS011;2361;49.540;8.390;2022-09-12T03:55:42;8.97;;;4.87;;
4694;SDS011;2361;49.540;8.390;2022-09-12T03:58:09;6.67;;;3.97;;
4694;SDS011;2361;49.540;8.390;2022-09-12T04:00:37;15.33;;;5.37;;
4694;SDS011;2361;49.540;8.390;2022-09-12T04:03:04;12.53;;;5.47;;
4694;SDS011;2361;49.540;8.390;2022-09-12T04:05:31;9.17;;;5.57;;
4694;SDS011;2361;49.540;8.390;2022-09-12T04:07:58;8.33;;;5.27;;
4694;SDS011;2361;49.540;8.390;2022-09-12T04:10:24;8.77;;;4.97;;
4694;SDS011;2361;49.540;8.390;2022-09-12T04:12:51;9.37;;;5.47;;
4694;SDS011;2361;49.540;8.390;2022-09-12T04:15:18;8.67;;;5.80;;
4694;SDS011;2361;49.540;8.390;2022-09-12T04:17:45;12.90;;;6.67;;
4694;SDS011;2361;49.540;8.390;2022-09-12T04:20:12;9.63;;;6.47;;
4694;SDS011;2361;49.540;8.390;2022-09-12T04:22:39;8.40;;;5.37;;
4694;SDS011;2361;49.540;8.390;2022-09-12T04:25:06;7.13;;;5.07;;
4694;SDS011;2361;49.540;8.390;2022-09-12T04:27:34;8.47;;;5.20;;
4694;SDS011;2361;49.540;8.390;2022-09-12T04:30:01;9.70;;;5.33;;
4694;SDS011;2361;49.540;8.390;2022-09-12T04:32:29;11.80;;;6.57;;
4694;SDS011;2361;49.540;8.390;2022-09-12T04:34:56;9.60;;;5.60;;
4694;SDS011;2361;49.540;8.390;2022-09-12T04:37:23;12.43;;;6.23;;
4694;SDS011;2361;49.540;8.390;2022-09-12T04:39:50;10.33;;;6.30;;
4694;SDS011;2361;49.540;8.390;2022-09-12T04:42:22;8.87;;;5.87;;
4694;SDS011;2361;49.540;8.390;2022-09-12T04:44:49;4.47;;;4.03;;
4694;SDS011;2361;49.540;8.390;2022-09-12T04:47:17;11.97;;;5.97;;
4694;SDS011;2361;49.540;8.390;2022-09-12T04:49:44;7.20;;;5.30;;
4694;SDS011;2361;49.540;8.390;2022-09-12T04:52:10;9.47;;;5.27;;
4694;SDS011;2361;49.540;8.390;2022-09-12T04:54:37;9.03;;;5.90;;
4694;SDS011;2361;49.540;8.390;2022-09-12T04:57:04;12.10;;;6.50;;
4694;SDS011;2361;49.540;8.390;2022-09-12T04:59:31;6.00;;;4.97;;
4694;SDS011;2361;49.540;8.390;2022-09-12T05:01:58;10.60;;;6.40;;
4694;SDS011;2361;49.540;8.390;2022-09-12T05:04:25;9.13;;;5.90;;
4694;SDS011;2361;49.540;8.390;2022-09-12T05:06:52;9.70;;;6.17;;
4694;SDS011;2361;49.540;8.390;2022-09-12T05:09:19;12.00;;;8.57;;
4694;SDS011;2361;49.540;8.390;2022-09-12T05:11:46;14.73;;;9.17;;
4694;SDS011;2361;49.540;8.390;2022-09-12T05:14:29;15.83;;;9.13;;
4694;SDS011;2361;49.540;8.390;2022-09-12T05:16:57;16.20;;;9.00;;
4694;SDS011;2361;49.540;8.390;2022-09-12T05:19:27;14.37;;;7.80;;
4694;SDS011;2361;49.540;8.390;2022-09-12T05:21:55;14.67;;;6.63;;
4694;SDS011;2361;49.540;8.390;2022-09-12T05:24:22;13.00;;;7.03;;
4694;SDS011;2361;49.540;8.390;2022-09-12T05:26:49;8.57;;;6.77;;
4694;SDS011;2361;49.540;8.390;2022-09-12T05:29:16;11.10;;;7.50;;
4694;SDS011;2361;49.540;8.390;2022-09-12T05:31:44;9.10;;;6.07;;
4694;SDS011;2361;49.540;8.390;2022-09-12T05:34:11;8.87;;;5.73;;
4694;SDS011;2361;49.540;8.390;2022-09-12T05:36:38;7.57;;;5.37;;
4694;SDS011;2361;49.540;8.390;2022-09-12T05:39:05;7.97;;;5.20;;
4694;SDS011;2361;49.540;8.390;2022-09-12T05:41:32;10.37;;;6.23;;
4694;SDS011;2361;49.540;8.390;2022-09-12T05:44:03;7.10;;;5.70;;
4694;SDS011;2361;49.540;8.390;2022-09-12T05:46:36;8.67;;;6.27;;
4694;SDS011;2361;49.540;8.390;2022-09-12T05:49:06;6.60;;;4.80;;
4694;SDS011;2361;49.540;8.390;2022-09-12T05:51:37;4.53;;;3.30;;
4694;SDS011;2361;49.540;8.390;2022-09-12T05:54:08;6.27;;;4.07;;
4694;SDS011;2361;49.540;8.390;2022-09-12T05:56:38;7.33;;;5.40;;
4694;SDS011;2361;49.540;8.390;2022-09-12T05:59:17;9.80;;;5.77;;
4694;SDS011;2361;49.540;8.390;2022-09-12T06:01:46;7.23;;;5.70;;
4694;SDS011;2361;49.540;8.390;2022-09-12T06:04:14;9.20;;;5.00;;
4694;SDS011;2361;49.540;8.390;2022-09-12T06:06:41;8.60;;;5.20;;
4694;SDS011;2361;49.540;8.390;2022-09-12T06:09:14;5.63;;;4.20;;
4694;SDS011;2361;49.540;8.390;2022-09-12T06:11:42;11.00;;;6.20;;
4694;SDS011;2361;49.540;8.390;2022-09-12T06:14:11;8.30;;;5.33;;
4694;SDS011;2361;49.540;8.390;2022-09-12T06:16:41;9.40;;;6.03;;
4694;SDS011;2361;49.540;8.390;2022-09-12T06:19:26;11.97;;;6.90;;
4694;SDS011;2361;49.540;8.390;2022-09-12T06:21:53;10.57;;;7.00;;
4694;SDS011;2361;49.540;8.390;2022-09-12T06:24:20;7.40;;;5.30;;
4694;SDS011;2361;49.540;8.390;2022-09-12T06:26:48;5.20;;;3.97;;
4694;SDS011;2361;49.540;8.390;2022-09-12T06:29:17;8.13;;;5.47;;
4694;SDS011;2361;49.540;8.390;2022-09-12T06:31:44;10.60;;;6.93;;
4694;SDS011;2361;49.540;8.390;2022-09-12T06:34:11;12.30;;;8.00;;
4694;SDS011;2361;49.540;8.390;2022-09-12T06:36:44;11.43;;;8.13;;
4694;SDS011;2361;49.540;8.390;2022-09-12T06:39:14;9.67;;;6.60;;
4694;SDS011;2361;49.540;8.390;2022-09-12T06:41:48;9.70;;;7.53;;
4694;SDS011;2361;49.540;8.390;2022-09-12T06:44:18;11.73;;;7.80;;
4694;SDS011;2361;49.540;8.390;2022-09-12T06:46:47;9.00;;;6.47;;
4694;SDS011;2361;49.540;8.390;2022-09-12T06:49:15;8.93;;;7.30;;
4694;SDS011;2361;49.540;8.390;2022-09-12T06:51:42;11.50;;;8.10;;
4694;SDS011;2361;49.540;8.390;2022-09-12T06:54:13;12.67;;;7.90;;
4694;SDS011;2361;49.540;8.390;2022-09-12T06:56:41;12.43;;;8.70;;
4694;SDS011;2361;49.540;8.390;2022-09-12T06:59:09;12.60;;;7.87;;
4694;SDS011;2361;49.540;8.390;2022-09-12T07:01:36;10.93;;;7.10;;
4694;SDS011;2361;49.540;8.390;2022-09-12T07:04:03;12.07;;;7.63;;
4694;SDS011;2361;49.540;8.390;2022-09-12T07:06:34;14.70;;;9.17;;
4694;SDS011;2361;49.540;8.390;2022-09-12T07:09:05;11.90;;;8.50;;
4694;SDS011;2361;49.540;8.390;2022-09-12T07:11:34;10.40;;;6.97;;
4694;SDS011;2361;49.540;8.390;2022-09-12T07:14:04;14.67;;;8.67;;
4694;SDS011;2361;49.540;8.390;2022-09-12T07:16:35;14.83;;;9.33;;
4694;SDS011;2361;49.540;8.390;2022-09-12T07:19:04;20.90;;;11.60;;
4694;SDS011;2361;49.540;8.390;2022-09-12T07:21:32;21.10;;;10.97;;
4694;SDS011;2361;49.540;8.390;2022-09-12T07:24:05;22.60;;;12.57;;
4694;SDS011;2361;49.540;8.390;2022-09-12T07:26:34;21.53;;;11.37;;
4694;SDS011;2361;49.540;8.390;2022-09-12T07:29:01;19.50;;;10.10;;
4694;SDS011;2361;49.540;8.390;2022-09-12T07:31:48;27.40;;;11.87;;
4694;SDS011;2361;49.540;8.390;2022-09-12T07:34:15;23.00;;;10.57;;
4694;SDS011;2361;49.540;8.390;2022-09-12T07:36:43;20.40;;;11.70;;
4694;SDS011;2361;49.540;8.390;2022-09-12T07:39:10;28.30;;;13.67;;
4694;SDS011;2361;49.540;8.390;2022-09-12T07:41:37;27.20;;;13.30;;
4694;SDS011;2361;49.540;8.390;2022-09-12T07:44:04;29.30;;;15.30;;
4694;SDS011;2361;49.540;8.390;2022-09-12T07:46:32;23.50;;;12.80;;
4694;SDS011;2361;49.540;8.390;2022-09-12T07:49:00;21.50;;;11.67;;
4694;SDS011;2361;49.540;8.390;2022-09-12T07:51:28;27.97;;;13.40;;
4694;SDS011;2361;49.540;8.390;2022-09-12T07:53:56;21.43;;;10.90;;
4694;SDS011;2361;49.540;8.390;2022-09-12T07:56:24;25.23;;;12.57;;
4694;SDS011;2361;49.540;8.390;2022-09-12T07:58:56;21.30;;;12.23;;
4694;SDS011;2361;49.540;8.390;2022-09-12T08:01:23;24.20;;;12.70;;
4694;SDS011;2361;49.540;8.390;2022-09-12T08:03:55;22.70;;;12.67;;
4694;SDS011;2361;49.540;8.390;2022-09-12T08:06:24;20.40;;;11.83;;
4694;SDS011;2361;49.540;8.390;2022-09-12T08:08:53;25.10;;;13.43;;
4694;SDS011;2361;49.540;8.390;2022-09-12T08:11:22;21.20;;;12.23;;
4694;SDS011;2361;49.540;8.390;2022-09-12T08:13:51;21.30;;;13.27;;
4694;SDS011;2361;49.540;8.390;2022-09-12T08:16:22;22.00;;;13.60;;
4694;SDS011;2361;49.540;8.390;2022-09-12T08:18:52;20.53;;;13.87;;
4694;SDS011;2361;49.540;8.390;2022-09-12T08:21:20;23.07;;;14.53;;
4694;SDS011;2361;49.540;8.390;2022-09-12T08:23:53;18.70;;;12.77;;
4694;SDS011;2361;49.540;8.390;2022-09-12T08:26:22;24.07;;;14.20;;
4694;SDS011;2361;49.540;8.390;2022-09-12T08:28:49;21.20;;;13.30;;
4694;SDS011;2361;49.540;8.390;2022-09-12T08:31:17;22.60;;;14.57;;
4694;SDS011;2361;49.540;8.390;2022-09-12T08:33:46;19.77;;;13.90;;
4694;SDS011;2361;49.540;8.390;2022-09-12T08:36:14;22.10;;;12.90;;
4694;SDS011;2361;49.540;8.390;2022-09-12T08:38:47;17.93;;;12.60;;
4694;SDS011;2361;49.540;8.390;2022-09-12T08:46:43;16.30;;;11.53;;
4694;SDS011;2361;49.540;8.390;2022-09-12T08:55:04;13.00;;;10.57;;
4694;SDS011;2361;49.540;8.390;2022-09-12T08:57:36;11.23;;;10.03;;
4694;SDS011;2361;49.540;8.390;2022-09-12T09:00:05;10.30;;;8.97;;
4694;SDS011;2361;49.540;8.390;2022-09-12T09:08:30;15.87;;;12.10;;
4694;SDS011;2361;49.540;8.390;2022-09-12T09:11:13;14.03;;;12.30;;
4694;SDS011;2361;49.540;8.390;2022-09-12T09:14:16;13.47;;;11.90;;
4694;SDS011;2361;49.540;8.390;2022-09-12T09:17:16;13.17;;;11.47;;
4694;SDS011;2361;49.540;8.390;2022-09-12T09:23:12;13.13;;;11.80;;
4694;SDS011;2361;49.540;8.390;2022-09-12T09:25:55;12.80;;;11.50;;
4694;SDS011;2361;49.540;8.390;2022-09-12T09:31:11;15.27;;;12.17;;
4694;SDS011;2361;49.540;8.390;2022-09-12T09:33:42;14.57;;;13.00;;
4694;SDS011;2361;49.540;8.390;2022-09-12T09:36:21;15.90;;;13.80;;
4694;SDS011;2361;49.540;8.390;2022-09-12T09:39:05;15.23;;;13.30;;
4694;SDS011;2361;49.540;8.390;2022-09-12T09:42:39;16.33;;;13.40;;
4694;SDS011;2361;49.540;8.390;2022-09-12T09:44:48;14.90;;;11.77;;
4694;SDS011;2361;49.540;8.390;2022-09-12T09:47:18;13.20;;;11.37;;
4694;SDS011;2361;49.540;8.390;2022-09-12T09:49:45;15.10;;;12.37;;
4694;SDS011;2361;49.540;8.390;2022-09-12T09:52:13;14.47;;;12.57;;
4694;SDS011;2361;49.540;8.390;2022-09-12T09:54:57;16.83;;;14.83;;
4694;SDS011;2361;49.540;8.390;2022-09-12T10:05:46;14.50;;;12.07;;
4694;SDS011;2361;49.540;8.390;2022-09-12T10:08:31;17.30;;;14.60;;
4694;SDS011;2361;49.540;8.390;2022-09-12T10:11:02;17.40;;;14.60;;
4694;SDS011;2361;49.540;8.390;2022-09-12T10:13:56;24.23;;;16.80;;
4694;SDS011;2361;49.540;8.390;2022-09-12T10:16:33;17.87;;;14.30;;
4694;SDS011;2361;49.540;8.390;2022-09-12T10:19:21;18.53;;;15.47;;
4694;SDS011;2361;49.540;8.390;2022-09-12T10:21:59;19.37;;;13.97;;
4694;SDS011;2361;49.540;8.390;2022-09-12T10:24:29;18.60;;;15.53;;
4694;SDS011;2361;49.540;8.390;2022-09-12T10:27:06;19.90;;;15.90;;
4694;SDS011;2361;49.540;8.390;2022-09-12T10:29:49;20.67;;;16.80;;
4694;SDS011;2361;49.540;8.390;2022-09-12T10:32:30;21.53;;;14.60;;
4694;SDS011;2361;49.540;8.390;2022-09-12T10:35:07;22.40;;;15.83;;
4694;SDS011;2361;49.540;8.390;2022-09-12T10:37:57;20.37;;;14.73;;
4694;SDS011;2361;49.540;8.390;2022-09-12T10:40:35;21.67;;;14.87;;
4694;SDS011;2361;49.540;8.390;2022-09-12T10:45:58;25.90;;;17.00;;
4694;SDS011;2361;49.540;8.390;2022-09-12T10:48:47;22.20;;;14.50;;
4694;SDS011;2361;49.540;8.390;2022-09-12T10:51:34;22.10;;;13.70;;
4694;SDS011;2361;49.540;8.390;2022-09-12T10:54:02;22.00;;;13.13;;
4694;SDS011;2361;49.540;8.390;2022-09-12T10:56:34;21.77;;;13.37;;
4694;SDS011;2361;49.540;8.390;2022-09-12T11:08:39;18.50;;;12.23;;
4694;SDS011;2361;49.540;8.390;2022-09-12T11:19:44;13.53;;;8.27;;
4694;SDS011;2361;49.540;8.390;2022-09-12T11:25:19;8.17;;;5.70;;
4694;SDS011;2361;49.540;8.390;2022-09-12T11:27:54;4.93;;;4.33;;
4694;SDS011;2361;49.540;8.390;2022-09-12T11:31:28;4.73;;;4.13;;
4694;SDS011;2361;49.540;8.390;2022-09-12T11:33:44;4.37;;;3.97;;
4694;SDS011;2361;49.540;8.390;2022-09-12T11:36:32;3.53;;;3.23;;
4694;SDS011;2361;49.540;8.390;2022-09-12T11:39:13;4.10;;;3.80;;
4694;SDS011;2361;49.540;8.390;2022-09-12T11:41:44;4.00;;;3.57;;
4694;SDS011;2361;49.540;8.390;2022-09-12T11:44:26;3.83;;;3.53;;
4694;SDS011;2361;49.540;8.390;2022-09-12T11:47:12;3.80;;;3.37;;
4694;SDS011;2361;49.540;8.390;2022-09-12T11:49:44;3.77;;;3.33;;
4694;SDS011;2361;49.540;8.390;2022-09-12T11:52:16;3.57;;;3.37;;
4694;SDS011;2361;49.540;8.390;2022-09-12T11:55:01;3.10;;;2.90;;
4694;SDS011;2361;49.540;8.390;2022-09-12T12:03:22;6.13;;;3.70;;
4694;SDS011;2361;49.540;8.390;2022-09-12T12:06:01;4.57;;;2.73;;
4694;SDS011;2361;49.540;8.390;2022-09-12T12:08:44;3.53;;;3.23;;
4694;SDS011;2361;49.540;8.390;2022-09-12T12:11:14;3.23;;;3.03;;
4694;SDS011;2361;49.540;8.390;2022-09-12T12:14:04;3.13;;;2.77;;
4694;SDS011;2361;49.540;8.390;2022-09-12T12:16:41;2.27;;;2.07;;
4694;SDS011;2361;49.540;8.390;2022-09-12T12:21:48;3.00;;;2.20;;
4694;SDS011;2361;49.540;8.390;2022-09-12T12:24:23;2.53;;;2.33;;
4694;SDS011;2361;49.540;8.390;2022-09-12T12:34:28;2.40;;;2.20;;
4694;SDS011;2361;49.540;8.390;2022-09-12T12:52:42;2.90;;;2.60;;
4694;SDS011;2361;49.540;8.390;2022-09-12T12:55:25;2.60;;;2.40;;
4694;SDS011;2361;49.540;8.390;2022-09-12T12:58:55;2.30;;;2.20;;
4694;SDS011;2361;49.540;8.390;2022-09-12T13:03:42;2.30;;;2.20;;
4694;SDS011;2361;49.540;8.390;2022-09-12T13:06:28;2.33;;;2.23;;
4694;SDS011;2361;49.540;8.390;2022-09-12T13:09:04;2.50;;;2.40;;
4694;SDS011;2361;49.540;8.390;2022-09-12T13:12:11;2.70;;;2.50;;
4694;SDS011;2361;49.540;8.390;2022-09-12T13:14:50;3.63;;;2.50;;
4694;SDS011;2361;49.540;8.390;2022-09-12T13:20:15;3.20;;;2.70;;
4694;SDS011;2361;49.540;8.390;2022-09-12T13:22:54;2.83;;;2.23;;
4694;SDS011;2361;49.540;8.390;2022-09-12T13:25:24;3.97;;;2.20;;
4694;SDS011;2361;49.540;8.390;2022-09-12T13:28:02;5.40;;;2.17;;
4694;SDS011;2361;49.540;8.390;2022-09-12T13:30:44;1.40;;;1.40;;
4694;SDS011;2361;49.540;8.390;2022-09-12T13:33:33;2.60;;;2.03;;
4694;SDS011;2361;49.540;8.390;2022-09-12T13:39:18;2.30;;;2.10;;
4694;SDS011;2361;49.540;8.390;2022-09-12T13:44:48;2.60;;;2.40;;
4694;SDS011;2361;49.540;8.390;2022-09-12T13:47:27;3.23;;;2.40;;
4694;SDS011;2361;49.540;8.390;2022-09-12T13:50:02;2.97;;;2.73;;
4694;SDS011;2361;49.540;8.390;2022-09-12T13:52:32;2.43;;;2.23;;
4694;SDS011;2361;49.540;8.390;2022-09-12T13:55:09;2.73;;;2.53;;
4694;SDS011;2361;49.540;8.390;2022-09-12T13:58:05;3.17;;;2.70;;
4694;SDS011;2361;49.540;8.390;2022-09-12T14:00:45;2.27;;;2.17;;
4694;SDS011;2361;49.540;8.390;2022-09-12T14:03:27;5.57;;;2.17;;
4694;SDS011;2361;49.540;8.390;2022-09-12T14:06:18;2.57;;;2.47;;
4694;SDS011;2361;49.540;8.390;2022-09-12T14:08:45;1.80;;;1.70;;
4694;SDS011;2361;49.540;8.390;2022-09-12T14:11:22;2.60;;;2.50;;
4694;SDS011;2361;49.540;8.390;2022-09-12T14:13:52;1.30;;;1.30;;
4694;SDS011;2361;49.540;8.390;2022-09-12T14:16:22;1.37;;;1.37;;
4694;SDS011;2361;49.540;8.390;2022-09-12T14:18:52;1.93;;;1.83;;
4694;SDS011;2361;49.540;8.390;2022-09-12T14:21:29;3.50;;;1.60;;
4694;SDS011;2361;49.540;8.390;2022-09-12T14:24:00;1.80;;;1.70;;
4694;SDS011;2361;49.540;8.390;2022-09-12T14:26:34;2.03;;;1.90;;
4694;SDS011;2361;49.540;8.390;2022-09-12T14:29:05;1.73;;;1.63;;
4694;SDS011;2361;49.540;8.390;2022-09-12T14:31:35;1.80;;;1.70;;
4694;SDS011;2361;49.540;8.390;2022-09-12T14:34:11;1.67;;;1.57;;
4694;SDS011;2361;49.540;8.390;2022-09-12T14:36:47;2.10;;;1.90;;
4694;SDS011;2361;49.540;8.390;2022-09-12T14:39:33;2.00;;;1.90;;
4694;SDS011;2361;49.540;8.390;2022-09-12T14:42:16;1.50;;;1.50;;
4694;SDS011;2361;49.540;8.390;2022-09-12T14:44:56;2.10;;;2.00;;
4694;SDS011;2361;49.540;8.390;2022-09-12T14:47:34;2.20;;;2.10;;
4694;SDS011;2361;49.540;8.390;2022-09-12T14:50:13;2.00;;;1.90;;
4694;SDS011;2361;49.540;8.390;2022-09-12T14:53:01;1.37;;;1.37;;
4694;SDS011;2361;49.540;8.390;2022-09-12T14:55:33;2.30;;;2.20;;
4694;SDS011;2361;49.540;8.390;2022-09-12T15:03:52;1.97;;;1.87;;
4694;SDS011;2361;49.540;8.390;2022-09-12T15:06:22;1.87;;;1.77;;
4694;SDS011;2361;49.540;8.390;2022-09-12T15:08:59;1.90;;;1.80;;
4694;SDS011;2361;49.540;8.390;2022-09-12T15:11:31;2.20;;;2.10;;
4694;SDS011;2361;49.540;8.390;2022-09-12T15:14:05;2.37;;;2.20;;
4694;SDS011;2361;49.540;8.390;2022-09-12T15:16:38;7.20;;;5.70;;
4694;SDS011;2361;49.540;8.390;2022-09-12T15:19:05;2.30;;;2.20;;
4694;SDS011;2361;49.540;8.390;2022-09-12T15:21:32;1.97;;;1.87;;
4694;SDS011;2361;49.540;8.390;2022-09-12T15:23:59;2.57;;;2.27;;
4694;SDS011;2361;49.540;8.390;2022-09-12T15:26:26;1.80;;;1.70;;
4694;SDS011;2361;49.540;8.390;2022-09-12T15:28:56;4.73;;;2.03;;
4694;SDS011;2361;49.540;8.390;2022-09-12T15:31:27;2.20;;;2.00;;
4694;SDS011;2361;49.540;8.390;2022-09-12T15:33:57;2.30;;;2.20;;
4694;SDS011;2361;49.540;8.390;2022-09-12T15:36:27;2.20;;;2.10;;
4694;SDS011;2361;49.540;8.390;2022-09-12T15:38:54;2.17;;;2.07;;
4694;SDS011;2361;49.540;8.390;2022-09-12T15:44:02;2.30;;;2.20;;
4694;SDS011;2361;49.540;8.390;2022-09-12T15:46:30;1.87;;;1.87;;
4694;SDS011;2361;49.540;8.390;2022-09-12T15:48:57;2.10;;;2.00;;
4694;SDS011;2361;49.540;8.390;2022-09-12T15:51:24;3.77;;;2.27;;
4694;SDS011;2361;49.540;8.390;2022-09-12T15:53:51;4.10;;;1.90;;
4694;SDS011;2361;49.540;8.390;2022-09-12T15:56:19;4.20;;;2.50;;
4694;SDS011;2361;49.540;8.390;2022-09-12T15:58:48;2.53;;;1.80;;
4694;SDS011;2361;49.540;8.390;2022-09-12T16:01:24;2.60;;;2.40;;
4694;SDS011;2361;49.540;8.390;2022-09-12T16:03:53;2.27;;;2.17;;
4694;SDS011;2361;49.540;8.390;2022-09-12T16:06:21;2.43;;;2.20;;
4694;SDS011;2361;49.540;8.390;2022-09-12T16:08:48;12.13;;;8.60;;
4694;SDS011;2361;49.540;8.390;2022-09-12T16:13:46;2.27;;;2.17;;
4694;SDS011;2361;49.540;8.390;2022-09-12T16:16:13;3.73;;;2.70;;
4694;SDS011;2361;49.540;8.390;2022-09-12T16:18:40;2.77;;;2.50;;
4694;SDS011;2361;49.540;8.390;2022-09-12T16:21:08;2.20;;;2.10;;
4694;SDS011;2361;49.540;8.390;2022-09-12T16:23:44;2.13;;;2.03;;
4694;SDS011;2361;49.540;8.390;2022-09-12T16:26:12;2.30;;;2.20;;
4694;SDS011;2361;49.540;8.390;2022-09-12T16:28:40;14.00;;;10.07;;
4694;SDS011;2361;49.540;8.390;2022-09-12T16:31:08;3.70;;;2.60;;
4694;SDS011;2361;49.540;8.390;2022-09-12T16:33:37;2.50;;;2.40;;
4694;SDS011;2361;49.540;8.390;2022-09-12T16:38:41;3.97;;;2.60;;
4694;SDS011;2361;49.540;8.390;2022-09-12T16:41:16;2.47;;;2.37;;
4694;SDS011;2361;49.540;8.390;2022-09-12T16:43:45;2.13;;;2.03;;
4694;SDS011;2361;49.540;8.390;2022-09-12T16:46:14;2.30;;;2.20;;
4694;SDS011;2361;49.540;8.390;2022-09-12T16:48:44;2.63;;;2.47;;
4694;SDS011;2361;49.540;8.390;2022-09-12T16:51:18;3.03;;;2.90;;
4694;SDS011;2361;49.540;8.390;2022-09-12T16:53:49;2.13;;;2.03;;
4694;SDS011;2361;49.540;8.390;2022-09-12T16:56:16;2.63;;;2.20;;
4694;SDS011;2361;49.540;8.390;2022-09-12T16:58:43;2.67;;;2.47;;
4694;SDS011;2361;49.540;8.390;2022-09-12T17:01:12;2.27;;;2.10;;
4694;SDS011;2361;49.540;8.390;2022-09-12T17:03:58;2.47;;;2.30;;
4694;SDS011;2361;49.540;8.390;2022-09-12T17:06:25;2.73;;;2.53;;
4694;SDS011;2361;49.540;8.390;2022-09-12T17:08:54;3.40;;;2.20;;
4694;SDS011;2361;49.540;8.390;2022-09-12T17:11:27;2.90;;;2.70;;
4694;SDS011;2361;49.540;8.390;2022-09-12T17:14:04;3.27;;;2.93;;
4694;SDS011;2361;49.540;8.390;2022-09-12T17:16:33;2.20;;;2.10;;
4694;SDS011;2361;49.540;8.390;2022-09-12T17:19:03;2.80;;;2.60;;
4694;SDS011;2361;49.540;8.390;2022-09-12T17:21:31;2.87;;;2.67;;
4694;SDS011;2361;49.540;8.390;2022-09-12T17:23:59;2.93;;;2.73;;
4694;SDS011;2361;49.540;8.390;2022-09-12T17:26:26;2.83;;;2.60;;
4694;SDS011;2361;49.540;8.390;2022-09-12T17:28:53;3.00;;;2.70;;
4694;SDS011;2361;49.540;8.390;2022-09-12T17:31:20;4.50;;;2.60;;
4694;SDS011;2361;49.540;8.390;2022-09-12T17:33:47;2.90;;;2.70;;
4694;SDS011;2361;49.540;8.390;2022-09-12T17:36:16;6.60;;;2.80;;
4694;SDS011;2361;49.540;8.390;2022-09-12T17:38:44;2.77;;;2.57;;
4694;SDS011;2361;49.540;8.390;2022-09-12T17:41:12;3.43;;;3.13;;
4694;SDS011;2361;49.540;8.390;2022-09-12T17:43:43;2.90;;;2.70;;
4694;SDS011;2361;49.540;8.390;2022-09-12T17:46:12;2.87;;;2.67;;
4694;SDS011;2361;49.540;8.390;2022-09-12T17:48:39;2.43;;;2.33;;
4694;SDS011;2361;49.540;8.390;2022-09-12T17:51:07;2.67;;;2.47;;
4694;SDS011;2361;49.540;8.390;2022-09-12T17:53:40;5.43;;;4.40;;
4694;SDS011;2361;49.540;8.390;2022-09-12T17:56:07;4.70;;;4.23;;
4694;SDS011;2361;49.540;8.390;2022-09-12T17:58:35;3.40;;;3.20;;
4694;SDS011;2361;49.540;8.390;2022-09-12T18:01:03;4.30;;;2.87;;
4694;SDS011;2361;49.540;8.390;2022-09-12T18:03:52;4.10;;;3.20;;
4694;SDS011;2361;49.540;8.390;2022-09-12T18:06:21;5.40;;;3.50;;
4694;SDS011;2361;49.540;8.390;2022-09-12T18:08:49;3.40;;;3.10;;
4694;SDS011;2361;49.540;8.390;2022-09-12T18:11:16;4.57;;;3.60;;
4694;SDS011;2361;49.540;8.390;2022-09-12T18:13:43;6.83;;;3.47;;
4694;SDS011;2361;49.540;8.390;2022-09-12T18:16:10;4.60;;;2.47;;
4694;SDS011;2361;49.540;8.390;2022-09-12T18:18:39;2.60;;;2.40;;
4694;SDS011;2361;49.540;8.390;2022-09-12T18:21:06;2.60;;;2.40;;